sensor_id;sensor_type;location;lat;lon;timestamp;P1;durP1;ratioP1;P2;durP2;ratioP2
11344;SDS011;5727;42.600;23.028;2023-07-29T00:01:01;9.37;;;3.87;;
11344;SDS011;5727;42.600;23.028;2023-07-29T00:03:27;11.47;;;4.20;;
11344;SDS011;5727;42.600;23.028;2023-07-29T00:05:55;9.23;;;3.93;;
11344;SDS011;5727;42.600;23.028;2023-07-29T00:08:21;14.90;;;4.80;;
11344;SDS011;5727;42.600;23.028;2023-07-29T00:10:48;10.27;;;4.17;;
11344;SDS011;5727;42.600;23.028;2023-07-29T00:13:16;10.57;;;4.23;;
11344;SDS011;5727;42.600;23.028;2023-07-29T00:15:43;12.47;;;3.90;;
11344;SDS011;5727;42.600;23.028;2023-07-29T00:18:10;11.57;;;5.03;;
11344;SDS011;5727;42.600;23.028;2023-07-29T00:20:36;13.47;;;5.00;;
11344;SDS011;5727;42.600;23.028;2023-07-29T00:23:03;11.50;;;5.03;;
11344;SDS011;5727;42.600;23.028;2023-07-29T00:25:30;17.20;;;6.83;;
11344;SDS011;5727;42.600;23.028;2023-07-29T00:27:58;21.60;;;6.03;;
11344;SDS011;5727;42.600;23.028;2023-07-29T00:30:26;18.70;;;5.30;;
11344;SDS011;5727;42.600;23.028;2023-07-29T00:32:53;8.67;;;4.30;;
11344;SDS011;5727;42.600;23.028;2023-07-29T00:35:20;10.27;;;4.10;;
11344;SDS011;5727;42.600;23.028;2023-07-29T00:37:46;8.47;;;3.07;;
11344;SDS011;5727;42.600;23.028;2023-07-29T00:40:15;10.37;;;4.47;;
11344;SDS011;5727;42.600;23.028;2023-07-29T00:42:45;27.43;;;7.13;;
11344;SDS011;5727;42.600;23.028;2023-07-29T00:45:12;20.70;;;6.33;;
11344;SDS011;5727;42.600;23.028;2023-07-29T00:47:40;24.77;;;6.37;;
11344;SDS011;5727;42.600;23.028;2023-07-29T00:50:08;19.20;;;5.73;;
11344;SDS011;5727;42.600;23.028;2023-07-29T00:52:37;21.70;;;6.30;;
11344;SDS011;5727;42.600;23.028;2023-07-29T00:55:04;13.70;;;6.00;;
11344;SDS011;5727;42.600;23.028;2023-07-29T00:57:32;17.20;;;5.50;;
11344;SDS011;5727;42.600;23.028;2023-07-29T00:59:59;12.53;;;4.87;;
11344;SDS011;5727;42.600;23.028;2023-07-29T01:02:27;9.63;;;4.60;;
11344;SDS011;5727;42.600;23.028;2023-07-29T01:04:56;10.83;;;4.90;;
11344;SDS011;5727;42.600;23.028;2023-07-29T01:07:26;7.63;;;4.87;;
11344;SDS011;5727;42.600;23.028;2023-07-29T01:10:00;11.83;;;4.13;;
11344;SDS011;5727;42.600;23.028;2023-07-29T01:12:33;10.30;;;4.10;;
11344;SDS011;5727;42.600;23.028;2023-07-29T01:15:06;11.00;;;5.10;;
11344;SDS011;5727;42.600;23.028;2023-07-29T01:17:39;11.97;;;4.57;;
11344;SDS011;5727;42.600;23.028;2023-07-29T01:20:11;17.43;;;4.97;;
11344;SDS011;5727;42.600;23.028;2023-07-29T01:22:40;17.97;;;6.73;;
11344;SDS011;5727;42.600;23.028;2023-07-29T01:25:09;12.30;;;4.77;;
11344;SDS011;5727;42.600;23.028;2023-07-29T01:27:36;14.63;;;5.37;;
11344;SDS011;5727;42.600;23.028;2023-07-29T01:30:03;10.40;;;5.07;;
11344;SDS011;5727;42.600;23.028;2023-07-29T01:32:35;12.33;;;4.80;;
11344;SDS011;5727;42.600;23.028;2023-07-29T01:35:08;18.03;;;5.87;;
11344;SDS011;5727;42.600;23.028;2023-07-29T01:37:41;20.37;;;5.07;;
11344;SDS011;5727;42.600;23.028;2023-07-29T01:40:15;19.23;;;5.20;;
11344;SDS011;5727;42.600;23.028;2023-07-29T01:42:44;22.27;;;6.07;;
11344;SDS011;5727;42.600;23.028;2023-07-29T01:45:11;31.23;;;6.43;;
11344;SDS011;5727;42.600;23.028;2023-07-29T01:47:38;22.77;;;5.83;;
11344;SDS011;5727;42.600;23.028;2023-07-29T01:50:07;21.47;;;6.60;;
11344;SDS011;5727;42.600;23.028;2023-07-29T01:52:34;26.67;;;5.80;;
11344;SDS011;5727;42.600;23.028;2023-07-29T01:55:01;26.90;;;6.27;;
11344;SDS011;5727;42.600;23.028;2023-07-29T01:57:29;18.67;;;6.30;;
11344;SDS011;5727;42.600;23.028;2023-07-29T01:59:55;19.40;;;5.13;;
11344;SDS011;5727;42.600;23.028;2023-07-29T02:02:22;20.67;;;6.00;;
11344;SDS011;5727;42.600;23.028;2023-07-29T02:04:49;24.53;;;6.07;;
11344;SDS011;5727;42.600;23.028;2023-07-29T02:07:17;17.57;;;5.63;;
11344;SDS011;5727;42.600;23.028;2023-07-29T02:09:44;16.57;;;5.37;;
11344;SDS011;5727;42.600;23.028;2023-07-29T02:12:11;13.90;;;4.97;;
11344;SDS011;5727;42.600;23.028;2023-07-29T02:14:39;11.93;;;5.13;;
11344;SDS011;5727;42.600;23.028;2023-07-29T02:17:06;10.77;;;4.80;;
11344;SDS011;5727;42.600;23.028;2023-07-29T02:19:33;12.93;;;5.00;;
11344;SDS011;5727;42.600;23.028;2023-07-29T02:22:00;14.17;;;5.07;;
11344;SDS011;5727;42.600;23.028;2023-07-29T02:24:27;11.37;;;5.47;;
11344;SDS011;5727;42.600;23.028;2023-07-29T02:26:54;10.90;;;4.00;;
11344;SDS011;5727;42.600;23.028;2023-07-29T02:29:20;9.67;;;4.33;;
11344;SDS011;5727;42.600;23.028;2023-07-29T02:31:49;10.23;;;4.17;;
11344;SDS011;5727;42.600;23.028;2023-07-29T02:34:15;8.93;;;4.00;;
11344;SDS011;5727;42.600;23.028;2023-07-29T02:36:42;8.60;;;3.80;;
11344;SDS011;5727;42.600;23.028;2023-07-29T02:41:56;13.63;;;4.43;;
11344;SDS011;5727;42.600;23.028;2023-07-29T02:44:23;10.93;;;4.47;;
11344;SDS011;5727;42.600;23.028;2023-07-29T02:46:51;11.60;;;4.87;;
11344;SDS011;5727;42.600;23.028;2023-07-29T02:49:20;10.00;;;4.20;;
11344;SDS011;5727;42.600;23.028;2023-07-29T02:51:47;11.50;;;4.50;;
11344;SDS011;5727;42.600;23.028;2023-07-29T02:54:14;11.70;;;5.47;;
11344;SDS011;5727;42.600;23.028;2023-07-29T02:56:41;14.93;;;5.43;;
11344;SDS011;5727;42.600;23.028;2023-07-29T02:59:08;11.23;;;5.73;;
11344;SDS011;5727;42.600;23.028;2023-07-29T03:01:34;9.93;;;4.73;;
11344;SDS011;5727;42.600;23.028;2023-07-29T03:04:03;11.57;;;4.90;;
11344;SDS011;5727;42.600;23.028;2023-07-29T03:06:30;7.40;;;4.63;;
11344;SDS011;5727;42.600;23.028;2023-07-29T03:08:56;10.13;;;4.50;;
11344;SDS011;5727;42.600;23.028;2023-07-29T03:11:23;10.77;;;4.83;;
11344;SDS011;5727;42.600;23.028;2023-07-29T03:13:50;13.43;;;5.20;;
11344;SDS011;5727;42.600;23.028;2023-07-29T03:16:17;10.83;;;4.90;;
11344;SDS011;5727;42.600;23.028;2023-07-29T03:18:44;16.23;;;4.80;;
11344;SDS011;5727;42.600;23.028;2023-07-29T03:21:12;11.03;;;4.90;;
11344;SDS011;5727;42.600;23.028;2023-07-29T03:23:39;13.93;;;5.33;;
11344;SDS011;5727;42.600;23.028;2023-07-29T03:26:05;10.73;;;5.40;;
11344;SDS011;5727;42.600;23.028;2023-07-29T03:28:36;11.60;;;5.07;;
11344;SDS011;5727;42.600;23.028;2023-07-29T03:31:04;12.77;;;5.07;;
11344;SDS011;5727;42.600;23.028;2023-07-29T03:33:30;13.87;;;5.13;;
11344;SDS011;5727;42.600;23.028;2023-07-29T03:35:57;17.67;;;5.70;;
11344;SDS011;5727;42.600;23.028;2023-07-29T03:38:25;15.50;;;5.40;;
11344;SDS011;5727;42.600;23.028;2023-07-29T03:40:52;13.57;;;5.03;;
11344;SDS011;5727;42.600;23.028;2023-07-29T03:43:19;14.20;;;5.60;;
11344;SDS011;5727;42.600;23.028;2023-07-29T03:45:46;10.93;;;5.30;;
11344;SDS011;5727;42.600;23.028;2023-07-29T03:48:13;13.40;;;5.43;;
11344;SDS011;5727;42.600;23.028;2023-07-29T03:50:39;12.90;;;5.50;;
11344;SDS011;5727;42.600;23.028;2023-07-29T03:53:06;11.67;;;4.97;;
11344;SDS011;5727;42.600;23.028;2023-07-29T03:55:36;7.27;;;5.17;;
11344;SDS011;5727;42.600;23.028;2023-07-29T03:58:03;12.90;;;4.93;;
11344;SDS011;5727;42.600;23.028;2023-07-29T04:00:29;15.40;;;5.17;;
11344;SDS011;5727;42.600;23.028;2023-07-29T04:02:56;11.10;;;4.70;;
11344;SDS011;5727;42.600;23.028;2023-07-29T04:05:23;10.57;;;4.90;;
11344;SDS011;5727;42.600;23.028;2023-07-29T04:07:50;10.37;;;4.40;;
11344;SDS011;5727;42.600;23.028;2023-07-29T04:10:18;24.90;;;6.20;;
11344;SDS011;5727;42.600;23.028;2023-07-29T04:12:46;26.00;;;7.37;;
11344;SDS011;5727;42.600;23.028;2023-07-29T04:15:13;17.37;;;4.77;;
11344;SDS011;5727;42.600;23.028;2023-07-29T04:17:40;24.77;;;6.57;;
11344;SDS011;5727;42.600;23.028;2023-07-29T04:20:07;20.87;;;6.40;;
11344;SDS011;5727;42.600;23.028;2023-07-29T04:22:34;26.33;;;6.47;;
11344;SDS011;5727;42.600;23.028;2023-07-29T04:25:01;23.33;;;7.10;;
11344;SDS011;5727;42.600;23.028;2023-07-29T04:27:29;24.27;;;7.00;;
11344;SDS011;5727;42.600;23.028;2023-07-29T04:29:57;24.50;;;7.33;;
11344;SDS011;5727;42.600;23.028;2023-07-29T04:32:24;23.97;;;7.03;;
11344;SDS011;5727;42.600;23.028;2023-07-29T04:34:51;26.93;;;7.53;;
11344;SDS011;5727;42.600;23.028;2023-07-29T04:37:19;28.37;;;8.23;;
11344;SDS011;5727;42.600;23.028;2023-07-29T04:39:45;32.80;;;8.00;;
11344;SDS011;5727;42.600;23.028;2023-07-29T04:42:12;28.53;;;8.90;;
11344;SDS011;5727;42.600;23.028;2023-07-29T04:44:39;25.43;;;8.00;;
11344;SDS011;5727;42.600;23.028;2023-07-29T04:47:08;26.67;;;8.70;;
11344;SDS011;5727;42.600;23.028;2023-07-29T04:49:36;26.03;;;8.77;;
11344;SDS011;5727;42.600;23.028;2023-07-29T04:52:03;29.50;;;8.27;;
11344;SDS011;5727;42.600;23.028;2023-07-29T04:54:30;20.43;;;7.00;;
11344;SDS011;5727;42.600;23.028;2023-07-29T04:56:57;28.03;;;7.80;;
11344;SDS011;5727;42.600;23.028;2023-07-29T04:59:23;27.00;;;9.53;;
11344;SDS011;5727;42.600;23.028;2023-07-29T05:01:50;27.13;;;8.63;;
11344;SDS011;5727;42.600;23.028;2023-07-29T05:04:18;21.10;;;7.63;;
11344;SDS011;5727;42.600;23.028;2023-07-29T05:06:45;22.73;;;7.30;;
11344;SDS011;5727;42.600;23.028;2023-07-29T05:09:12;23.47;;;7.20;;
11344;SDS011;5727;42.600;23.028;2023-07-29T05:11:40;25.43;;;7.50;;
11344;SDS011;5727;42.600;23.028;2023-07-29T05:14:08;16.57;;;6.60;;
11344;SDS011;5727;42.600;23.028;2023-07-29T05:16:35;20.10;;;7.17;;
11344;SDS011;5727;42.600;23.028;2023-07-29T05:19:02;20.80;;;7.27;;
11344;SDS011;5727;42.600;23.028;2023-07-29T05:21:30;18.30;;;6.87;;
11344;SDS011;5727;42.600;23.028;2023-07-29T05:23:57;15.30;;;6.83;;
11344;SDS011;5727;42.600;23.028;2023-07-29T05:26:24;20.03;;;6.33;;
11344;SDS011;5727;42.600;23.028;2023-07-29T05:28:50;22.00;;;6.80;;
11344;SDS011;5727;42.600;23.028;2023-07-29T05:31:17;16.17;;;6.40;;
11344;SDS011;5727;42.600;23.028;2023-07-29T05:33:44;15.97;;;6.73;;
11344;SDS011;5727;42.600;23.028;2023-07-29T05:36:10;12.83;;;6.37;;
11344;SDS011;5727;42.600;23.028;2023-07-29T05:38:39;11.33;;;5.80;;
11344;SDS011;5727;42.600;23.028;2023-07-29T05:41:05;17.90;;;6.43;;
11344;SDS011;5727;42.600;23.028;2023-07-29T05:43:32;16.83;;;5.43;;
11344;SDS011;5727;42.600;23.028;2023-07-29T05:45:59;17.10;;;5.60;;
11344;SDS011;5727;42.600;23.028;2023-07-29T05:48:25;13.73;;;5.50;;
11344;SDS011;5727;42.600;23.028;2023-07-29T05:50:52;13.97;;;5.37;;
11344;SDS011;5727;42.600;23.028;2023-07-29T05:53:19;11.40;;;5.97;;
11344;SDS011;5727;42.600;23.028;2023-07-29T05:55:47;14.77;;;5.60;;
11344;SDS011;5727;42.600;23.028;2023-07-29T05:58:14;12.57;;;5.20;;
11344;SDS011;5727;42.600;23.028;2023-07-29T06:00:40;16.87;;;5.60;;
11344;SDS011;5727;42.600;23.028;2023-07-29T06:03:07;17.67;;;5.57;;
11344;SDS011;5727;42.600;23.028;2023-07-29T06:05:34;12.53;;;5.73;;
11344;SDS011;5727;42.600;23.028;2023-07-29T06:08:01;11.30;;;4.63;;
11344;SDS011;5727;42.600;23.028;2023-07-29T06:10:27;17.50;;;5.07;;
11344;SDS011;5727;42.600;23.028;2023-07-29T06:12:55;11.30;;;5.07;;
11344;SDS011;5727;42.600;23.028;2023-07-29T06:15:22;10.83;;;4.90;;
11344;SDS011;5727;42.600;23.028;2023-07-29T06:17:49;11.60;;;4.30;;
11344;SDS011;5727;42.600;23.028;2023-07-29T06:20:16;10.87;;;4.53;;
11344;SDS011;5727;42.600;23.028;2023-07-29T06:22:42;13.80;;;5.10;;
11344;SDS011;5727;42.600;23.028;2023-07-29T06:25:09;11.47;;;4.67;;
11344;SDS011;5727;42.600;23.028;2023-07-29T06:27:36;10.97;;;4.37;;
11344;SDS011;5727;42.600;23.028;2023-07-29T06:30:05;11.77;;;4.23;;
11344;SDS011;5727;42.600;23.028;2023-07-29T06:32:33;14.40;;;4.40;;
11344;SDS011;5727;42.600;23.028;2023-07-29T06:35:00;13.47;;;3.90;;
11344;SDS011;5727;42.600;23.028;2023-07-29T06:37:27;11.17;;;4.43;;
11344;SDS011;5727;42.600;23.028;2023-07-29T06:39:53;10.17;;;4.20;;
11344;SDS011;5727;42.600;23.028;2023-07-29T06:42:20;12.80;;;4.03;;
11344;SDS011;5727;42.600;23.028;2023-07-29T06:44:47;11.30;;;4.33;;
11344;SDS011;5727;42.600;23.028;2023-07-29T06:47:15;11.93;;;4.30;;
11344;SDS011;5727;42.600;23.028;2023-07-29T06:49:42;9.70;;;3.87;;
11344;SDS011;5727;42.600;23.028;2023-07-29T06:52:08;9.87;;;4.47;;
11344;SDS011;5727;42.600;23.028;2023-07-29T06:54:35;10.80;;;4.40;;
11344;SDS011;5727;42.600;23.028;2023-07-29T06:57:02;16.47;;;4.40;;
11344;SDS011;5727;42.600;23.028;2023-07-29T06:59:29;14.20;;;5.30;;
11344;SDS011;5727;42.600;23.028;2023-07-29T07:01:55;17.97;;;6.13;;
11344;SDS011;5727;42.600;23.028;2023-07-29T07:04:24;16.77;;;5.47;;
11344;SDS011;5727;42.600;23.028;2023-07-29T07:06:50;15.27;;;5.80;;
11344;SDS011;5727;42.600;23.028;2023-07-29T07:09:17;19.43;;;5.93;;
11344;SDS011;5727;42.600;23.028;2023-07-29T07:11:45;13.47;;;5.17;;
11344;SDS011;5727;42.600;23.028;2023-07-29T07:14:12;15.27;;;5.97;;
11344;SDS011;5727;42.600;23.028;2023-07-29T07:16:39;23.33;;;6.50;;
11344;SDS011;5727;42.600;23.028;2023-07-29T07:19:06;11.57;;;5.37;;
11344;SDS011;5727;42.600;23.028;2023-07-29T07:21:34;15.93;;;5.37;;
11344;SDS011;5727;42.600;23.028;2023-07-29T07:24:01;12.73;;;5.73;;
11344;SDS011;5727;42.600;23.028;2023-07-29T07:26:27;15.00;;;5.03;;
11344;SDS011;5727;42.600;23.028;2023-07-29T07:28:54;21.23;;;5.87;;
11344;SDS011;5727;42.600;23.028;2023-07-29T07:31:21;18.73;;;5.33;;
11344;SDS011;5727;42.600;23.028;2023-07-29T07:33:48;15.77;;;5.07;;
11344;SDS011;5727;42.600;23.028;2023-07-29T07:36:15;17.23;;;5.07;;
11344;SDS011;5727;42.600;23.028;2023-07-29T07:38:43;16.07;;;5.20;;
11344;SDS011;5727;42.600;23.028;2023-07-29T07:41:10;17.47;;;5.27;;
11344;SDS011;5727;42.600;23.028;2023-07-29T07:43:37;16.63;;;5.27;;
11344;SDS011;5727;42.600;23.028;2023-07-29T07:46:04;17.23;;;4.90;;
11344;SDS011;5727;42.600;23.028;2023-07-29T07:48:31;14.40;;;4.53;;
11344;SDS011;5727;42.600;23.028;2023-07-29T07:50:58;14.63;;;4.03;;
11344;SDS011;5727;42.600;23.028;2023-07-29T07:53:25;11.40;;;3.67;;
11344;SDS011;5727;42.600;23.028;2023-07-29T07:55:53;12.07;;;3.70;;
11344;SDS011;5727;42.600;23.028;2023-07-29T07:58:20;10.57;;;4.03;;
11344;SDS011;5727;42.600;23.028;2023-07-29T08:00:46;11.23;;;3.30;;
11344;SDS011;5727;42.600;23.028;2023-07-29T08:03:13;4.00;;;2.47;;
11344;SDS011;5727;42.600;23.028;2023-07-29T08:05:40;5.60;;;1.50;;
11344;SDS011;5727;42.600;23.028;2023-07-29T08:08:07;6.07;;;1.83;;
11344;SDS011;5727;42.600;23.028;2023-07-29T08:10:33;2.33;;;1.57;;
11344;SDS011;5727;42.600;23.028;2023-07-29T08:13:02;4.00;;;1.60;;
11344;SDS011;5727;42.600;23.028;2023-07-29T08:15:29;3.17;;;1.30;;
11344;SDS011;5727;42.600;23.028;2023-07-29T08:17:55;5.20;;;2.13;;
11344;SDS011;5727;42.600;23.028;2023-07-29T08:20:22;5.37;;;2.70;;
11344;SDS011;5727;42.600;23.028;2023-07-29T08:22:49;3.23;;;1.57;;
11344;SDS011;5727;42.600;23.028;2023-07-29T08:25:15;2.63;;;1.33;;
11344;SDS011;5727;42.600;23.028;2023-07-29T08:27:42;3.17;;;1.20;;
11344;SDS011;5727;42.600;23.028;2023-07-29T08:30:10;2.50;;;1.20;;
11344;SDS011;5727;42.600;23.028;2023-07-29T08:32:37;6.67;;;1.17;;
11344;SDS011;5727;42.600;23.028;2023-07-29T08:35:04;3.60;;;0.93;;
11344;SDS011;5727;42.600;23.028;2023-07-29T08:37:31;3.43;;;1.50;;
11344;SDS011;5727;42.600;23.028;2023-07-29T08:39:58;3.07;;;1.10;;
11344;SDS011;5727;42.600;23.028;2023-07-29T08:42:26;3.10;;;1.53;;
11344;SDS011;5727;42.600;23.028;2023-07-29T08:44:57;4.47;;;1.10;;
11344;SDS011;5727;42.600;23.028;2023-07-29T08:47:33;2.50;;;1.03;;
11344;SDS011;5727;42.600;23.028;2023-07-29T08:50:01;2.10;;;0.67;;
11344;SDS011;5727;42.600;23.028;2023-07-29T08:52:29;2.33;;;0.70;;
11344;SDS011;5727;42.600;23.028;2023-07-29T08:54:57;1.27;;;0.80;;
11344;SDS011;5727;42.600;23.028;2023-07-29T08:57:24;1.30;;;0.70;;
11344;SDS011;5727;42.600;23.028;2023-07-29T08:59:52;2.13;;;0.87;;
11344;SDS011;5727;42.600;23.028;2023-07-29T09:02:21;2.60;;;0.70;;
11344;SDS011;5727;42.600;23.028;2023-07-29T09:04:49;1.00;;;0.90;;
11344;SDS011;5727;42.600;23.028;2023-07-29T09:07:16;4.43;;;1.13;;
11344;SDS011;5727;42.600;23.028;2023-07-29T09:09:43;4.37;;;1.10;;
11344;SDS011;5727;42.600;23.028;2023-07-29T09:12:10;2.77;;;0.70;;
11344;SDS011;5727;42.600;23.028;2023-07-29T09:14:37;2.83;;;0.90;;
11344;SDS011;5727;42.600;23.028;2023-07-29T09:17:06;1.83;;;1.00;;
11344;SDS011;5727;42.600;23.028;2023-07-29T09:19:34;4.27;;;0.70;;
11344;SDS011;5727;42.600;23.028;2023-07-29T09:22:02;3.40;;;1.10;;
11344;SDS011;5727;42.600;23.028;2023-07-29T09:24:29;1.47;;;0.80;;
11344;SDS011;5727;42.600;23.028;2023-07-29T09:26:57;3.00;;;0.60;;
11344;SDS011;5727;42.600;23.028;2023-07-29T09:29:24;1.33;;;0.70;;
11344;SDS011;5727;42.600;23.028;2023-07-29T09:31:56;1.50;;;0.70;;
11344;SDS011;5727;42.600;23.028;2023-07-29T09:34:44;2.67;;;0.90;;
11344;SDS011;5727;42.600;23.028;2023-07-29T09:37:14;2.10;;;0.93;;
11344;SDS011;5727;42.600;23.028;2023-07-29T09:39:43;1.10;;;0.50;;
11344;SDS011;5727;42.600;23.028;2023-07-29T09:42:11;1.63;;;0.67;;
11344;SDS011;5727;42.600;23.028;2023-07-29T09:44:38;1.10;;;0.50;;
11344;SDS011;5727;42.600;23.028;2023-07-29T09:47:05;4.40;;;0.90;;
11344;SDS011;5727;42.600;23.028;2023-07-29T09:49:34;2.93;;;0.70;;
11344;SDS011;5727;42.600;23.028;2023-07-29T09:52:02;3.73;;;0.60;;
11344;SDS011;5727;42.600;23.028;2023-07-29T09:54:31;2.93;;;1.03;;
11344;SDS011;5727;42.600;23.028;2023-07-29T09:56:58;5.07;;;0.50;;
11344;SDS011;5727;42.600;23.028;2023-07-29T09:59:25;5.83;;;0.50;;
11344;SDS011;5727;42.600;23.028;2023-07-29T10:01:52;1.77;;;0.50;;
11344;SDS011;5727;42.600;23.028;2023-07-29T10:04:19;1.37;;;0.53;;
11344;SDS011;5727;42.600;23.028;2023-07-29T10:06:47;1.50;;;0.57;;
11344;SDS011;5727;42.600;23.028;2023-07-29T10:09:14;4.00;;;0.63;;
11344;SDS011;5727;42.600;23.028;2023-07-29T10:11:43;1.67;;;0.70;;
11344;SDS011;5727;42.600;23.028;2023-07-29T10:14:10;0.57;;;0.30;;
11344;SDS011;5727;42.600;23.028;2023-07-29T10:16:37;0.70;;;0.40;;
11344;SDS011;5727;42.600;23.028;2023-07-29T10:19:06;1.03;;;0.43;;
11344;SDS011;5727;42.600;23.028;2023-07-29T10:21:33;1.73;;;0.50;;
11344;SDS011;5727;42.600;23.028;2023-07-29T10:24:04;2.03;;;0.30;;
11344;SDS011;5727;42.600;23.028;2023-07-29T10:26:35;0.80;;;0.50;;
11344;SDS011;5727;42.600;23.028;2023-07-29T10:29:07;0.70;;;0.30;;
11344;SDS011;5727;42.600;23.028;2023-07-29T10:31:39;1.52;;;0.30;;
11344;SDS011;5727;42.600;23.028;2023-07-29T10:34:09;1.67;;;0.30;;
11344;SDS011;5727;42.600;23.028;2023-07-29T10:36:37;1.55;;;0.40;;
11344;SDS011;5727;42.600;23.028;2023-07-29T10:39:05;0.80;;;0.40;;
11344;SDS011;5727;42.600;23.028;2023-07-29T10:47:18;2.42;;;0.57;;
11344;SDS011;5727;42.600;23.028;2023-07-29T10:49:47;1.98;;;0.30;;
11344;SDS011;5727;42.600;23.028;2023-07-29T10:52:27;2.15;;;0.40;;
11344;SDS011;5727;42.600;23.028;2023-07-29T10:54:55;1.48;;;0.45;;
11344;SDS011;5727;42.600;23.028;2023-07-29T10:57:30;0.65;;;0.30;;
11344;SDS011;5727;42.600;23.028;2023-07-29T10:59:59;0.70;;;0.32;;
11344;SDS011;5727;42.600;23.028;2023-07-29T11:02:30;1.25;;;0.30;;
11344;SDS011;5727;42.600;23.028;2023-07-29T11:04:57;1.15;;;0.40;;
11344;SDS011;5727;42.600;23.028;2023-07-29T11:07:25;1.05;;;0.40;;
11344;SDS011;5727;42.600;23.028;2023-07-29T11:09:53;1.95;;;0.30;;
11344;SDS011;5727;42.600;23.028;2023-07-29T11:15:22;1.95;;;0.30;;
11344;SDS011;5727;42.600;23.028;2023-07-29T11:17:50;2.70;;;0.32;;
11344;SDS011;5727;42.600;23.028;2023-07-29T11:20:18;1.38;;;0.40;;
11344;SDS011;5727;42.600;23.028;2023-07-29T11:22:46;0.93;;;0.40;;
11344;SDS011;5727;42.600;23.028;2023-07-29T11:25:14;1.98;;;0.50;;
11344;SDS011;5727;42.600;23.028;2023-07-29T11:27:42;1.33;;;0.73;;
11344;SDS011;5727;42.600;23.028;2023-07-29T11:30:10;1.42;;;0.50;;
11344;SDS011;5727;42.600;23.028;2023-07-29T11:32:40;0.57;;;0.40;;
11344;SDS011;5727;42.600;23.028;2023-07-29T11:35:08;0.63;;;0.30;;
11344;SDS011;5727;42.600;23.028;2023-07-29T11:37:37;0.93;;;0.30;;
11344;SDS011;5727;42.600;23.028;2023-07-29T11:40:06;1.58;;;0.40;;
11344;SDS011;5727;42.600;23.028;2023-07-29T11:42:35;1.75;;;0.52;;
11344;SDS011;5727;42.600;23.028;2023-07-29T11:45:03;2.38;;;0.50;;
11344;SDS011;5727;42.600;23.028;2023-07-29T11:47:31;0.73;;;0.43;;
11344;SDS011;5727;42.600;23.028;2023-07-29T11:50:02;1.23;;;0.35;;
11344;SDS011;5727;42.600;23.028;2023-07-29T11:52:30;2.65;;;0.40;;
11344;SDS011;5727;42.600;23.028;2023-07-29T11:54:58;1.35;;;0.52;;
11344;SDS011;5727;42.600;23.028;2023-07-29T11:57:26;2.08;;;0.38;;
11344;SDS011;5727;42.600;23.028;2023-07-29T11:59:53;1.08;;;0.60;;
11344;SDS011;5727;42.600;23.028;2023-07-29T12:02:20;1.10;;;0.60;;
11344;SDS011;5727;42.600;23.028;2023-07-29T12:04:49;1.60;;;0.50;;
11344;SDS011;5727;42.600;23.028;2023-07-29T12:07:18;1.15;;;0.50;;
11344;SDS011;5727;42.600;23.028;2023-07-29T12:09:45;1.05;;;0.43;;
11344;SDS011;5727;42.600;23.028;2023-07-29T12:12:12;1.98;;;0.93;;
11344;SDS011;5727;42.600;23.028;2023-07-29T12:14:43;2.92;;;0.63;;
11344;SDS011;5727;42.600;23.028;2023-07-29T12:17:10;1.30;;;0.60;;
11344;SDS011;5727;42.600;23.028;2023-07-29T12:19:37;1.00;;;0.75;;
11344;SDS011;5727;42.600;23.028;2023-07-29T12:22:05;1.48;;;0.90;;
11344;SDS011;5727;42.600;23.028;2023-07-29T12:24:35;2.60;;;0.70;;
11344;SDS011;5727;42.600;23.028;2023-07-29T12:27:03;1.50;;;0.60;;
11344;SDS011;5727;42.600;23.028;2023-07-29T12:29:31;1.40;;;0.88;;
11344;SDS011;5727;42.600;23.028;2023-07-29T12:31:59;1.25;;;0.68;;
11344;SDS011;5727;42.600;23.028;2023-07-29T12:34:28;2.38;;;0.82;;
11344;SDS011;5727;42.600;23.028;2023-07-29T12:36:56;3.25;;;0.45;;
11344;SDS011;5727;42.600;23.028;2023-07-29T12:39:25;1.20;;;0.40;;
11344;SDS011;5727;42.600;23.028;2023-07-29T12:41:54;1.10;;;0.52;;
11344;SDS011;5727;42.600;23.028;2023-07-29T12:44:23;0.82;;;0.60;;
11344;SDS011;5727;42.600;23.028;2023-07-29T12:46:50;0.90;;;0.45;;
11344;SDS011;5727;42.600;23.028;2023-07-29T12:49:18;2.45;;;0.60;;
11344;SDS011;5727;42.600;23.028;2023-07-29T12:51:45;1.05;;;0.43;;
11344;SDS011;5727;42.600;23.028;2023-07-29T12:54:12;1.02;;;0.70;;
11344;SDS011;5727;42.600;23.028;2023-07-29T12:56:39;0.90;;;0.50;;
11344;SDS011;5727;42.600;23.028;2023-07-29T12:59:07;0.90;;;0.50;;
11344;SDS011;5727;42.600;23.028;2023-07-29T13:01:33;0.90;;;0.50;;
11344;SDS011;5727;42.600;23.028;2023-07-29T13:04:00;2.53;;;1.05;;
11344;SDS011;5727;42.600;23.028;2023-07-29T13:06:27;0.98;;;0.40;;
11344;SDS011;5727;42.600;23.028;2023-07-29T13:08:53;2.28;;;0.40;;
11344;SDS011;5727;42.600;23.028;2023-07-29T13:11:20;2.60;;;0.40;;
11344;SDS011;5727;42.600;23.028;2023-07-29T13:13:47;0.55;;;0.30;;
11344;SDS011;5727;42.600;23.028;2023-07-29T13:16:15;0.88;;;0.40;;
11344;SDS011;5727;42.600;23.028;2023-07-29T13:18:43;0.80;;;0.30;;
11344;SDS011;5727;42.600;23.028;2023-07-29T13:21:10;1.60;;;0.40;;
11344;SDS011;5727;42.600;23.028;2023-07-29T13:23:36;2.60;;;0.50;;
11344;SDS011;5727;42.600;23.028;2023-07-29T13:26:03;1.42;;;0.30;;
11344;SDS011;5727;42.600;23.028;2023-07-29T13:28:30;0.80;;;0.50;;
11344;SDS011;5727;42.600;23.028;2023-07-29T13:30:56;0.70;;;0.38;;
11344;SDS011;5727;42.600;23.028;2023-07-29T13:33:24;1.20;;;0.30;;
11344;SDS011;5727;42.600;23.028;2023-07-29T13:35:51;3.45;;;0.40;;
11344;SDS011;5727;42.600;23.028;2023-07-29T13:38:18;0.93;;;0.30;;
11344;SDS011;5727;42.600;23.028;2023-07-29T13:40:45;0.82;;;0.20;;
11344;SDS011;5727;42.600;23.028;2023-07-29T13:43:12;0.80;;;0.38;;
11344;SDS011;5727;42.600;23.028;2023-07-29T13:45:39;3.20;;;0.30;;
11344;SDS011;5727;42.600;23.028;2023-07-29T13:48:05;1.40;;;0.50;;
11344;SDS011;5727;42.600;23.028;2023-07-29T13:50:33;0.80;;;0.30;;
11344;SDS011;5727;42.600;23.028;2023-07-29T13:53:00;1.75;;;0.50;;
11344;SDS011;5727;42.600;23.028;2023-07-29T13:55:27;1.35;;;0.35;;
11344;SDS011;5727;42.600;23.028;2023-07-29T13:57:54;1.40;;;0.30;;
11344;SDS011;5727;42.600;23.028;2023-07-29T14:00:20;0.60;;;0.30;;
11344;SDS011;5727;42.600;23.028;2023-07-29T14:02:47;1.45;;;0.47;;
11344;SDS011;5727;42.600;23.028;2023-07-29T14:05:14;0.65;;;0.40;;
11344;SDS011;5727;42.600;23.028;2023-07-29T14:07:42;3.25;;;0.68;;
11344;SDS011;5727;42.600;23.028;2023-07-29T14:10:09;1.35;;;0.50;;
11344;SDS011;5727;42.600;23.028;2023-07-29T14:12:36;1.00;;;0.40;;
11344;SDS011;5727;42.600;23.028;2023-07-29T14:15:03;1.33;;;0.43;;
11344;SDS011;5727;42.600;23.028;2023-07-29T14:17:31;1.33;;;0.40;;
11344;SDS011;5727;42.600;23.028;2023-07-29T14:19:58;1.25;;;0.32;;
11344;SDS011;5727;42.600;23.028;2023-07-29T14:22:24;0.93;;;0.40;;
11344;SDS011;5727;42.600;23.028;2023-07-29T14:24:52;1.85;;;0.60;;
11344;SDS011;5727;42.600;23.028;2023-07-29T14:27:19;1.27;;;0.57;;
11344;SDS011;5727;42.600;23.028;2023-07-29T14:29:46;3.78;;;0.50;;
11344;SDS011;5727;42.600;23.028;2023-07-29T14:32:13;0.82;;;0.50;;
11344;SDS011;5727;42.600;23.028;2023-07-29T14:34:39;0.93;;;0.45;;
11344;SDS011;5727;42.600;23.028;2023-07-29T14:37:06;2.08;;;0.60;;
11344;SDS011;5727;42.600;23.028;2023-07-29T14:39:33;1.40;;;0.70;;
11344;SDS011;5727;42.600;23.028;2023-07-29T14:42:01;3.55;;;0.50;;
11344;SDS011;5727;42.600;23.028;2023-07-29T14:44:28;1.83;;;0.80;;
11344;SDS011;5727;42.600;23.028;2023-07-29T14:46:54;1.25;;;0.50;;
11344;SDS011;5727;42.600;23.028;2023-07-29T14:49:21;1.27;;;0.68;;
11344;SDS011;5727;42.600;23.028;2023-07-29T14:51:48;1.17;;;0.50;;
11344;SDS011;5727;42.600;23.028;2023-07-29T14:54:14;2.45;;;0.70;;